Time;durP1;ratioP1;P1;durP2;ratioP2;P2;SDS_P1;SDS_P2;PMS_P1;PMS_P2;Temp;Humidity;BMP_temperature;BMP_pressure;BME280_temperature;BME280_humidity;BME280_pressure;Samples;Min_cycle;Max_cycle;Signal;HPM_P1;HPM_P2
2021/12/28 00:01:21;;;;;;;26.10;6.40;;;;;;;7.49;100.00;99388.97;5108022;28;20084;-84
2021/12/28 00:03:46;;;;;;;30.48;6.57;;;;;;;7.45;100.00;99381.50;5081049;28;20015;-84
2021/12/28 00:06:15;;;;;;;33.65;6.50;;;;;;;7.43;100.00;99383.44;5091331;28;20031;-85
2021/12/28 00:08:41;;;;;;;25.55;6.35;;;;;;;7.44;100.00;99385.91;5088891;28;20102;-85
2021/12/28 00:11:08;;;;;;;30.48;6.65;;;;;;;7.42;100.00;99387.84;5106112;28;20040;-85
2021/12/28 00:13:34;;;;;;;33.10;6.88;;;;;;;7.42;100.00;99381.78;5090932;28;20042;-83
2021/12/28 00:17:58;;;;;;;33.75;6.60;;;;;;;7.41;100.00;99378.31;5110647;28;20024;-83
2021/12/28 00:18:46;;;;;;;31.63;6.40;;;;;;;7.40;100.00;99378.47;5080356;28;20051;-82
2021/12/28 00:21:12;;;;;;;34.17;6.30;;;;;;;7.36;100.00;99370.03;5090895;28;20058;-83
2021/12/28 00:23:39;;;;;;;24.90;6.18;;;;;;;7.33;100.00;99367.69;5091712;28;20056;-83
2021/12/28 00:26:07;;;;;;;28.95;6.13;;;;;;;7.33;100.00;99370.31;5086091;28;20035;-83
2021/12/28 00:28:33;;;;;;;34.30;6.78;;;;;;;7.30;100.00;99367.94;5106059;28;20590;-82
2021/12/28 00:30:59;;;;;;;28.80;5.85;;;;;;;7.29;100.00;99355.81;5109927;28;20027;-82
2021/12/28 00:33:25;;;;;;;28.88;6.10;;;;;;;7.30;100.00;99360.09;5089854;28;20047;-83
2021/12/28 00:35:51;;;;;;;30.30;6.95;;;;;;;7.26;100.00;99361.31;5108757;28;20019;-83
2021/12/28 00:38:22;;;;;;;33.83;6.53;;;;;;;7.26;100.00;99360.47;5100573;28;20130;-83
2021/12/28 00:40:50;;;;;;;30.23;6.45;;;;;;;7.27;100.00;99362.13;5100533;28;20030;-83
2021/12/28 00:43:16;;;;;;;25.17;6.72;;;;;;;7.23;100.00;99361.56;5090498;28;20031;-83
2021/12/28 00:45:42;;;;;;;35.38;6.68;;;;;;;7.20;100.00;99356.56;5108635;28;20030;-83
2021/12/28 00:48:08;;;;;;;35.53;7.07;;;;;;;7.23;100.00;99359.78;5107703;28;20027;-83
2021/12/28 00:50:34;;;;;;;36.42;6.82;;;;;;;7.19;100.00;99354.91;5090364;28;20494;-82
2021/12/28 00:52:59;;;;;;;37.33;7.25;;;;;;;7.22;100.00;99349.44;5089368;28;20015;-82
2021/12/28 00:55:25;;;;;;;30.65;6.78;;;;;;;7.22;100.00;99344.22;5098228;28;20144;-82
2021/12/28 00:57:52;;;;;;;32.72;6.97;;;;;;;7.22;100.00;99349.44;5108134;28;20149;-83
2021/12/28 01:00:29;;;;;;;31.83;7.05;;;;;;;7.21;100.00;99342.56;5109235;28;20028;-82
2021/12/28 01:02:56;;;;;;;26.75;6.57;;;;;;;7.21;100.00;99342.56;5107519;28;20106;-82
2021/12/28 01:05:23;;;;;;;38.75;7.20;;;;;;;7.19;100.00;99339.22;5103086;28;20028;-81
2021/12/28 01:07:48;;;;;;;35.17;7.35;;;;;;;7.19;100.00;99331.38;5105751;28;20040;-84
2021/12/28 01:10:19;;;;;;;37.03;7.18;;;;;;;7.16;100.00;99335.06;5084602;28;20020;-83
2021/12/28 01:12:45;;;;;;;29.45;6.35;;;;;;;7.17;100.00;99335.91;5105780;28;20312;-83
2021/12/28 01:15:13;;;;;;;36.30;7.05;;;;;;;7.16;100.00;99335.06;5101143;28;20352;-84
2021/12/28 01:17:39;;;;;;;36.42;6.22;;;;;;;7.16;100.00;99329.03;5090244;28;20042;-84
2021/12/28 01:20:09;;;;;;;38.63;6.82;;;;;;;7.13;100.00;99326.66;5108901;28;20455;-84
2021/12/28 01:22:34;;;;;;;33.85;6.18;;;;;;;7.11;100.00;99318.13;5084395;28;20028;-84
2021/12/28 01:25:00;;;;;;;28.38;6.80;;;;;;;7.10;100.00;99319.91;5106712;28;20381;-84
2021/12/28 01:27:25;;;;;;;35.70;6.70;;;;;;;7.10;100.00;99324.31;5103102;28;20036;-84
2021/12/28 01:29:51;;;;;;;31.15;6.07;;;;;;;7.09;100.00;99318.25;5097028;28;20061;-84
2021/12/28 01:32:16;;;;;;;29.15;6.07;;;;;;;7.06;100.00;99318.50;5108090;28;20403;-84
2021/12/28 01:34:43;;;;;;;40.55;6.90;;;;;;;7.07;100.00;99314.94;5091003;28;20399;-84
2021/12/28 01:37:09;;;;;;;45.33;6.28;;;;;;;7.08;100.00;99321.00;5089923;28;20055;-84
2021/12/28 01:39:34;;;;;;;29.48;6.20;;;;;;;7.08;100.00;99318.38;5090110;28;20035;-84
2021/12/28 01:42:02;;;;;;;40.55;6.15;;;;;;;7.07;100.00;99319.34;5089998;28;20035;-84
2021/12/28 01:44:29;;;;;;;30.70;6.50;;;;;;;7.06;100.00;99312.44;5086647;28;20028;-84
2021/12/28 01:46:54;;;;;;;35.92;6.78;;;;;;;7.04;100.00;99314.38;5106521;28;20047;-83
2021/12/28 01:49:20;;;;;;;33.35;6.00;;;;;;;7.06;100.00;99313.28;5108690;28;20059;-83
2021/12/28 01:51:45;;;;;;;38.10;6.38;;;;;;;7.07;100.00;99316.72;5108818;28;20035;-80
2021/12/28 01:54:10;;;;;;;36.53;6.55;;;;;;;7.04;100.00;99314.38;5108259;28;20031;-80
2021/12/28 01:56:42;;;;;;;41.35;7.18;;;;;;;7.05;100.00;99313.41;5081710;28;20029;-80
2021/12/28 01:59:13;;;;;;;32.25;6.40;;;;;;;7.07;100.00;99319.34;5089441;28;20387;-83
2021/12/28 02:01:40;;;;;;;31.55;6.43;;;;;;;7.04;100.00;99314.38;5108343;28;20050;-83
2021/12/28 02:04:31;;;;;;;36.92;6.43;;;;;;;7.11;100.00;99315.50;5101603;28;20027;-83
2021/12/28 02:07:02;;;;;;;31.42;6.43;;;;;;;7.09;100.00;99312.19;5107351;28;20043;-82
2021/12/28 02:09:27;;;;;;;36.67;6.40;;;;;;;7.08;100.00;99310.53;5093059;28;20103;-83
2021/12/28 02:11:53;;;;;;;41.85;7.15;;;;;;;7.06;100.00;99309.84;5085307;28;20540;-83
2021/12/28 02:14:22;;;;;;;37.25;6.63;;;;;;;7.07;100.00;99308.88;5111662;28;20395;-83
2021/12/28 02:16:47;;;;;;;37.08;6.35;;;;;;;7.04;100.00;99302.13;5093607;28;20025;-83
2021/12/28 02:19:14;;;;;;;42.50;7.05;;;;;;;7.10;100.00;99316.47;5102562;28;20020;-82
2021/12/28 02:21:40;;;;;;;35.03;6.30;;;;;;;7.07;100.00;99299.25;5110531;28;20098;-82
2021/12/28 02:24:07;;;;;;;32.40;6.15;;;;;;;7.10;100.00;99313.84;5111572;28;20046;-83
2021/12/28 02:26:33;;;;;;;34.78;6.18;;;;;;;7.09;100.00;99301.72;5083700;28;20123;-82
2021/12/28 02:28:59;;;;;;;31.80;6.07;;;;;;;7.07;100.00;99301.84;5111788;28;20076;-83
2021/12/28 02:31:26;;;;;;;44.97;6.82;;;;;;;7.11;100.00;99299.81;5092919;28;20512;-82
2021/12/28 02:33:51;;;;;;;40.75;6.35;;;;;;;7.09;100.00;99296.50;5093381;28;20388;-83
2021/12/28 02:36:18;;;;;;;37.20;6.53;;;;;;;7.07;100.00;99293.19;5111723;28;20024;-83
2021/12/28 02:38:45;;;;;;;29.55;6.35;;;;;;;7.10;100.00;99293.75;5101594;28;20023;-82
2021/12/28 02:41:12;;;;;;;38.70;6.50;;;;;;;7.12;100.00;99301.47;5093479;28;20167;-83
2021/12/28 02:43:39;;;;;;;33.35;6.05;;;;;;;7.14;100.00;99299.56;5100582;28;20031;-82
2021/12/28 02:46:07;;;;;;;44.22;6.80;;;;;;;7.11;100.00;99290.19;5107442;28;20041;-82
2021/12/28 02:48:34;;;;;;;45.08;6.63;;;;;;;7.14;100.00;99289.09;5110594;28;20142;-84
2021/12/28 02:51:04;;;;;;;31.13;6.15;;;;;;;7.13;100.00;99282.19;5112601;28;20024;-85
2021/12/28 02:53:29;;;;;;;36.67;6.38;;;;;;;7.16;100.00;99279.31;5107379;28;20028;-82
2021/12/28 02:55:55;;;;;;;36.30;6.15;;;;;;;7.17;100.00;99279.19;5099822;28;20031;-83
2021/12/28 02:58:27;;;;;;;34.05;6.78;;;;;;;7.19;100.00;99276.44;5108440;28;20059;-82
2021/12/28 03:01:07;;;;;;;42.70;6.60;;;;;;;7.19;100.00;99272.03;5091431;28;20038;-82
2021/12/28 03:03:33;;;;;;;35.25;5.82;;;;;;;7.20;100.00;99267.63;5083507;28;20027;-82
2021/12/28 03:06:02;;;;;;;40.10;6.30;;;;;;;7.22;100.00;99266.56;5110474;28;20027;-82
2021/12/28 03:08:29;;;;;;;37.95;6.10;;;;;;;7.23;100.00;99262.19;5110022;28;20027;-82
2021/12/28 03:10:55;;;;;;;35.35;5.68;;;;;;;7.25;100.00;99264.66;5088014;28;20035;-82
2021/12/28 03:13:26;;;;;;;34.75;5.80;;;;;;;7.27;100.00;99268.78;5109599;28;20019;-82
2021/12/28 03:15:52;;;;;;;32.67;6.00;;;;;;;7.30;100.00;99273.75;5079913;28;20034;-82
2021/12/28 03:18:18;;;;;;;35.20;5.78;;;;;;;7.30;100.00;99262.47;5107207;28;20083;-82
2021/12/28 03:20:44;;;;;;;38.75;6.55;;;;;;;7.30;100.00;99265.09;5083796;28;20039;-82
2021/12/28 03:23:13;;;;;;;41.50;5.82;;;;;;;7.30;100.00;99265.91;5091496;28;20048;-85
2021/12/28 03:25:39;;;;;;;38.05;5.50;;;;;;;7.31;100.00;99257.09;5091135;28;20458;-84
2021/12/28 03:28:04;;;;;;;30.10;5.13;;;;;;;7.32;100.00;99255.31;5105754;28;20459;-85
2021/12/28 03:30:30;;;;;;;36.65;5.78;;;;;;;7.37;100.00;99248.72;5090688;28;20084;-83
2021/12/28 03:32:56;;;;;;;35.90;5.43;;;;;;;7.38;100.00;99255.63;5106431;28;20032;-83
2021/12/28 03:35:21;;;;;;;30.30;5.00;;;;;;;7.38;100.00;99244.31;5105880;28;20084;-83
2021/12/28 03:37:46;;;;;;;42.28;6.32;;;;;;;7.42;100.00;99249.16;5107004;28;20131;-83
2021/12/28 03:40:14;;;;;;;31.20;5.10;;;;;;;7.44;100.00;99243.78;5104924;28;20055;-82
2021/12/28 03:42:40;;;;;;;33.47;5.80;;;;;;;7.46;100.00;99241.88;5088875;28;20039;-82
2021/12/28 03:45:07;;;;;;;34.88;5.10;;;;;;;7.50;100.00;99241.47;5098988;28;20027;-82
2021/12/28 03:47:32;;;;;;;32.40;5.07;;;;;;;7.53;100.00;99233.34;5092020;28;20178;-83
2021/12/28 03:49:58;;;;;;;40.30;5.22;;;;;;;7.52;100.00;99226.44;5110995;28;20032;-82
2021/12/28 03:52:23;;;;;;;38.17;5.13;;;;;;;7.57;100.00;99227.84;5084510;28;20051;-82
2021/12/28 03:54:49;;;;;;;39.25;5.57;;;;;;;7.55;100.00;99226.19;5091156;28;20497;-82
2021/12/28 03:57:14;;;;;;;40.50;5.07;;;;;;;7.58;100.00;99216.41;5110639;28;20035;-83
2021/12/28 03:59:39;;;;;;;30.25;4.93;;;;;;;7.59;100.00;99215.44;5106706;28;20036;-82
2021/12/28 04:02:05;;;;;;;34.00;4.88;;;;;;;7.58;100.00;99213.78;5104333;28;20039;-82
2021/12/28 04:04:31;;;;;;;29.48;4.97;;;;;;;7.63;100.00;99217.69;5101298;28;20604;-82
2021/12/28 04:06:56;;;;;;;38.80;5.05;;;;;;;7.64;100.00;99210.66;5110157;28;20032;-82
2021/12/28 04:09:45;;;;;;;25.17;4.38;;;;;;;7.66;100.00;99206.13;5109702;28;20433;-82
2021/12/28 04:12:07;;;;;;;26.20;4.15;;;;;;;7.73;100.00;99207.22;5109813;28;20043;-82
2021/12/28 04:14:33;;;;;;;26.75;4.20;;;;;;;7.74;100.00;99219.34;5110028;28;20029;-83
2021/12/28 04:16:58;;;;;;;30.13;3.90;;;;;;;7.75;100.00;99216.59;5105221;28;20074;-82
2021/12/28 04:19:23;;;;;;;29.90;4.30;;;;;;;7.76;100.00;99209.56;5109281;28;20054;-82
2021/12/28 04:21:49;;;;;;;25.83;4.28;;;;;;;7.78;100.00;99210.25;5110277;28;20035;-82
2021/12/28 04:24:14;;;;;;;34.08;4.30;;;;;;;7.77;100.00;99200.75;5091345;28;20040;-82
2021/12/28 04:26:39;;;;;;;27.05;4.65;;;;;;;7.84;100.00;99207.09;5108835;28;20062;-82
2021/12/28 04:29:05;;;;;;;29.77;4.35;;;;;;;7.84;100.00;99209.72;5109160;28;20427;-81
2021/12/28 04:31:30;;;;;;;25.73;4.40;;;;;;;7.81;100.00;99200.34;5108487;28;20282;-79
2021/12/28 04:33:56;;;;;;;26.08;4.78;;;;;;;7.85;100.00;99206.13;5085455;28;20047;-82
2021/12/28 04:36:22;;;;;;;35.00;4.53;;;;;;;7.87;100.00;99212.06;5090575;28;20068;-82
2021/12/28 04:38:47;;;;;;;31.17;4.50;;;;;;;7.92;100.00;99212.47;5100981;28;20028;-82
2021/12/28 04:41:13;;;;;;;28.85;4.43;;;;;;;7.93;100.00;99214.13;5078550;28;20098;-82
2021/12/28 04:43:39;;;;;;;25.35;4.38;;;;;;;7.94;100.00;99209.72;5086757;28;20451;-81
2021/12/28 04:46:06;;;;;;;25.58;3.85;;;;;;;7.97;100.00;99212.88;5090396;28;20110;-82
2021/12/28 04:48:32;;;;;;;20.10;3.88;;;;;;;7.96;100.00;99208.59;5090142;28;20883;-82
2021/12/28 04:50:58;;;;;;;24.02;3.95;;;;;;;7.98;100.00;99217.16;5102865;28;20025;-82
2021/12/28 04:53:24;;;;;;;26.38;4.13;;;;;;;8.03;100.00;99224.63;5108300;28;20034;-81
2021/12/28 04:55:51;;;;;;;23.15;4.00;;;;;;;8.04;100.00;99221.03;5108121;28;20035;-81
2021/12/28 04:58:17;;;;;;;24.17;3.30;;;;;;;8.06;100.00;99224.34;5109113;28;20027;-82
2021/12/28 05:00:45;;;;;;;28.10;4.10;;;;;;;8.06;100.00;99225.19;5103254;28;20035;-82
2021/12/28 05:03:14;;;;;;;28.65;3.97;;;;;;;8.04;100.00;99221.03;5105009;28;20414;-82
2021/12/28 05:05:43;;;;;;;28.05;3.70;;;;;;;8.06;100.00;99216.50;5096866;28;20027;-81
2021/12/28 05:08:09;;;;;;;21.90;3.55;;;;;;;8.07;100.00;99215.53;5107043;28;20046;-82
2021/12/28 05:10:35;;;;;;;23.52;3.38;;;;;;;8.05;100.00;99202.56;5108736;28;20384;-81
2021/12/28 05:13:01;;;;;;;19.02;3.70;;;;;;;8.07;100.00;99207.66;5109356;28;20019;-82
2021/12/28 05:15:26;;;;;;;20.58;3.30;;;;;;;8.07;100.00;99205.88;5100873;28;20035;-82
2021/12/28 05:17:51;;;;;;;24.85;4.00;;;;;;;8.04;100.00;99195.69;5102027;28;20107;-83
2021/12/28 05:20:17;;;;;;;22.85;3.38;;;;;;;8.07;100.00;99195.41;5090407;28;20035;-83
2021/12/28 05:22:42;;;;;;;18.20;3.03;;;;;;;8.06;100.00;99192.91;5102361;28;20122;-82
2021/12/28 05:25:08;;;;;;;19.17;2.97;;;;;;;8.08;100.00;99197.06;5093102;28;20547;-83
2021/12/28 05:27:34;;;;;;;22.33;3.50;;;;;;;8.08;100.00;99199.66;5103718;28;20495;-82
2021/12/28 05:29:59;;;;;;;22.30;3.13;;;;;;;8.07;100.00;99190.16;5105703;28;20448;-82
2021/12/28 05:32:25;;;;;;;17.83;3.08;;;;;;;8.11;100.00;99195.94;5107912;28;20030;-82
2021/12/28 05:34:50;;;;;;;18.08;3.05;;;;;;;8.09;100.00;99197.88;5101825;28;20064;-82
2021/12/28 05:37:16;;;;;;;23.20;3.00;;;;;;;8.09;100.00;99184.78;5107256;28;20035;-84
2021/12/28 05:39:44;;;;;;;15.88;2.90;;;;;;;8.10;100.00;99189.88;5092915;28;20625;-82
2021/12/28 05:42:09;;;;;;;20.65;3.20;;;;;;;8.13;100.00;99191.41;5095057;28;20370;-84
2021/12/28 05:44:35;;;;;;;27.33;3.28;;;;;;;8.13;100.00;99188.78;5107730;28;20023;-84
2021/12/28 05:47:00;;;;;;;22.20;3.30;;;;;;;8.10;100.00;99179.41;5090667;28;20051;-84
2021/12/28 05:49:26;;;;;;;17.40;2.88;;;;;;;8.12;100.00;99172.22;5093337;28;20035;-84
2021/12/28 05:51:52;;;;;;;18.38;3.03;;;;;;;8.09;100.00;99167.28;5093375;28;20027;-84
2021/12/28 05:54:18;;;;;;;18.85;3.30;;;;;;;8.13;100.00;99181.75;5103768;28;20028;-84
2021/12/28 05:56:44;;;;;;;17.08;3.10;;;;;;;8.13;100.00;99173.06;5111626;28;20406;-84
2021/12/28 05:59:10;;;;;;;18.33;2.72;;;;;;;8.14;100.00;99170.31;5109026;28;20027;-84
2021/12/28 06:01:36;;;;;;;17.63;2.95;;;;;;;8.16;100.00;99172.78;5103956;28;20417;-84
2021/12/28 06:04:02;;;;;;;13.02;2.38;;;;;;;8.09;100.00;99151.56;5112303;28;20016;-84
2021/12/28 06:06:28;;;;;;;14.27;2.75;;;;;;;8.15;100.00;99158.84;5093367;28;20387;-84
2021/12/28 06:08:53;;;;;;;14.38;2.13;;;;;;;8.11;100.00;99149.63;5112799;28;20023;-84
2021/12/28 06:11:22;;;;;;;12.68;2.42;;;;;;;8.17;100.00;99156.91;5111608;28;20038;-84
2021/12/28 06:13:47;;;;;;;11.18;2.42;;;;;;;8.20;100.00;99155.00;5109790;28;20028;-84
2021/12/28 06:16:14;;;;;;;11.93;2.20;;;;;;;8.18;100.00;99152.50;5112212;28;20032;-84
2021/12/28 06:18:41;;;;;;;15.48;2.53;;;;;;;8.23;100.00;99157.31;5104295;28;20484;-84
2021/12/28 06:21:07;;;;;;;13.30;2.42;;;;;;;8.15;100.00;99143.13;5112184;28;20034;-84
2021/12/28 06:23:32;;;;;;;13.85;2.65;;;;;;;8.23;100.00;99149.47;5091175;28;20055;-84
2021/12/28 06:25:58;;;;;;;14.32;2.53;;;;;;;8.22;100.00;99153.06;5105446;28;20066;-84
2021/12/28 06:28:23;;;;;;;12.00;2.40;;;;;;;8.22;100.00;99134.72;5091842;28;20103;-82
2021/12/28 06:30:49;;;;;;;11.13;2.90;;;;;;;8.27;100.00;99142.97;5086255;28;20084;-80
2021/12/28 06:33:15;;;;;;;10.93;2.13;;;;;;;8.25;100.00;99129.19;5104114;28;20069;-80
2021/12/28 06:35:43;;;;;;;17.52;3.30;;;;;;;8.26;100.00;99129.06;5092933;28;20020;-80
2021/12/28 06:38:09;;;;;;;12.13;2.35;;;;;;;8.25;100.00;99129.19;5093970;28;20016;-80
2021/12/28 06:40:34;;;;;;;15.20;2.70;;;;;;;8.26;100.00;99126.44;5092519;28;20031;-80
2021/12/28 06:43:00;;;;;;;9.48;2.28;;;;;;;8.25;100.00;99126.56;5103394;28;20027;-80
2021/12/28 06:45:26;;;;;;;11.30;2.38;;;;;;;8.25;100.00;99124.78;5087718;28;20034;-80
2021/12/28 06:47:51;;;;;;;12.02;2.25;;;;;;;8.28;100.00;99131.53;5111256;28;20117;-80
2021/12/28 06:50:17;;;;;;;15.57;2.60;;;;;;;8.25;100.00;99129.19;5111888;28;20041;-79
2021/12/28 06:52:42;;;;;;;12.75;2.20;;;;;;;8.30;100.00;99126.97;5092537;28;20031;-79
2021/12/28 06:55:09;;;;;;;12.05;2.20;;;;;;;8.28;100.00;99118.44;5103603;28;20107;-79
2021/12/28 06:57:35;;;;;;;10.63;2.17;;;;;;;8.26;100.00;99122.97;5111368;28;20095;-82
2021/12/28 07:00:03;;;;;;;9.80;2.15;;;;;;;8.30;100.00;99126.97;5103079;28;20032;-81
2021/12/28 07:02:29;;;;;;;10.60;1.92;;;;;;;8.22;100.00;99119.81;5102419;28;20046;-82
2021/12/28 07:04:54;;;;;;;11.57;2.00;;;;;;;8.30;100.00;99126.97;5104202;28;20024;-81
2021/12/28 07:07:20;;;;;;;10.57;2.20;;;;;;;8.30;100.00;99125.19;5110311;28;20398;-81
2021/12/28 07:09:46;;;;;;;7.13;1.73;;;;;;;8.28;100.00;99123.66;5104326;28;20440;-82
2021/12/28 07:12:14;;;;;;;8.70;1.77;;;;;;;8.31;100.00;99128.63;5109796;28;20527;-82
2021/12/28 07:14:39;;;;;;;7.97;1.80;;;;;;;8.29;100.00;99120.09;5091850;28;21018;-82
2021/12/28 07:17:05;;;;;;;8.35;1.80;;;;;;;8.27;100.00;99116.78;5092527;28;20103;-81
2021/12/28 07:19:30;;;;;;;8.95;1.80;;;;;;;8.30;100.00;99126.97;5087367;28;20047;-82
2021/12/28 07:21:56;;;;;;;10.98;2.03;;;;;;;8.33;100.00;99124.06;5110856;28;20142;-80
2021/12/28 07:24:21;;;;;;;10.07;1.80;;;;;;;8.31;100.00;99129.44;5110171;28;20407;-82
2021/12/28 07:26:47;;;;;;;12.90;2.10;;;;;;;8.36;100.00;99137.75;5092061;28;20055;-81
2021/12/28 07:29:13;;;;;;;9.05;1.70;;;;;;;8.34;100.00;99129.19;5101598;28;20061;-82
2021/12/28 07:31:39;;;;;;;8.18;1.63;;;;;;;8.38;100.00;99124.50;5109919;28;20066;-81
2021/12/28 07:34:05;;;;;;;8.15;1.98;;;;;;;8.37;100.00;99120.22;5110293;28;20797;-81
2021/12/28 07:36:30;;;;;;;9.63;2.10;;;;;;;8.37;100.00;99122.84;5108915;28;20031;-82
2021/12/28 07:38:56;;;;;;;8.65;2.53;;;;;;;8.37;100.00;99123.66;5107526;28;20024;-82
2021/12/28 07:41:22;;;;;;;7.05;1.80;;;;;;;8.34;100.00;99121.34;5090938;28;20107;-82
2021/12/28 07:43:48;;;;;;;8.73;1.90;;;;;;;8.35;100.00;99124.78;5090955;28;20053;-82
2021/12/28 07:46:14;;;;;;;7.32;1.77;;;;;;;8.40;100.00;99128.63;5104068;28;20436;-84
2021/12/28 07:48:40;;;;;;;5.95;1.60;;;;;;;8.35;100.00;99109.88;5107752;28;20510;-83
2021/12/28 07:51:07;;;;;;;7.00;1.80;;;;;;;8.42;100.00;99128.50;5109366;28;20051;-83
2021/12/28 07:53:35;;;;;;;7.25;1.90;;;;;;;8.37;100.00;99122.84;5086988;28;20154;-83
2021/12/28 07:56:02;;;;;;;8.38;2.30;;;;;;;8.41;100.00;99124.25;5101586;28;20100;-83
2021/12/28 07:58:30;;;;;;;8.10;2.00;;;;;;;8.40;100.00;99122.56;5090269;28;20031;-82
2021/12/28 08:00:58;;;;;;;10.98;2.25;;;;;;;8.37;100.00;99107.13;5091326;28;20368;-82
2021/12/28 08:03:24;;;;;;;5.93;2.20;;;;;;;8.40;100.00;99109.47;5082724;28;20115;-82
2021/12/28 08:05:50;;;;;;;7.38;2.50;;;;;;;8.35;100.00;99094.16;5100919;28;20051;-83
2021/12/28 08:08:16;;;;;;;9.10;3.20;;;;;;;8.42;100.00;99111.00;5092781;28;20027;-83
2021/12/28 08:10:42;;;;;;;7.55;2.50;;;;;;;8.45;100.00;99109.88;5105902;28;20020;-83
2021/12/28 08:13:07;;;;;;;8.63;3.35;;;;;;;8.44;100.00;99113.47;5100169;28;20027;-83
2021/12/28 08:15:39;;;;;;;6.63;2.95;;;;;;;8.46;100.00;99116.78;5091183;28;20055;-83
2021/12/28 08:18:07;;;;;;;6.72;3.53;;;;;;;8.46;100.00;99116.78;5101286;28;20071;-81
2021/12/28 08:20:33;;;;;;;8.57;3.40;;;;;;;8.47;100.00;99123.66;5110023;28;20503;-82
2021/12/28 08:22:59;;;;;;;9.45;3.58;;;;;;;8.41;100.00;99109.34;5109606;28;20040;-82
2021/12/28 08:25:25;;;;;;;7.72;4.10;;;;;;;8.49;100.00;99113.88;5089944;28;20063;-84
2021/12/28 08:27:51;;;;;;;8.82;3.95;;;;;;;8.44;100.00;99108.22;5103593;28;20050;-82
2021/12/28 08:30:25;;;;;;;7.32;4.00;;;;;;;8.50;100.00;99112.91;5101059;28;20031;-83
2021/12/28 08:32:50;;;;;;;7.97;4.32;;;;;;;8.52;100.00;99107.50;5109581;28;20035;-82
2021/12/28 08:35:17;;;;;;;9.35;4.88;;;;;;;8.50;100.00;99105.03;5100482;28;20032;-82
2021/12/28 08:37:43;;;;;;;8.70;4.75;;;;;;;8.43;100.00;99089.06;5109159;28;20130;-82
2021/12/28 08:40:10;;;;;;;9.60;4.90;;;;;;;8.54;100.00;99101.16;5109194;28;20149;-82
2021/12/28 08:42:36;;;;;;;10.45;5.57;;;;;;;8.47;100.00;99086.97;5108324;28;20032;-82
2021/12/28 08:45:01;;;;;;;9.52;5.82;;;;;;;8.52;100.00;99095.22;5107534;28;20387;-83
2021/12/28 08:47:27;;;;;;;11.27;6.18;;;;;;;8.54;100.00;99098.53;5108213;28;20296;-82
2021/12/28 08:49:57;;;;;;;8.70;6.30;;;;;;;8.56;100.00;99099.22;5109486;28;20015;-82
2021/12/28 08:52:23;;;;;;;10.10;6.80;;;;;;;8.59;100.00;99108.59;5090684;28;20387;-83
2021/12/28 08:54:48;;;;;;;9.25;6.97;;;;;;;8.53;100.00;99090.81;5105207;28;20019;-82
2021/12/28 08:57:14;;;;;;;10.73;7.40;;;;;;;8.53;100.00;99083.78;5108510;28;20080;-82
2021/12/28 08:59:39;;;;;;;9.10;7.35;;;;;;;8.59;100.00;99093.69;5108563;28;20372;-82
2021/12/28 09:02:07;;;;;;;8.98;7.50;;;;;;;8.56;100.00;99090.53;5106634;28;20058;-82
2021/12/28 09:04:33;;;;;;;10.43;7.80;;;;;;;8.58;100.00;99088.59;5107880;28;20019;-82
2021/12/28 09:06:59;;;;;;;10.40;8.40;;;;;;;8.61;100.00;99083.06;5108679;28;20046;-82
2021/12/28 09:09:24;;;;;;;10.25;8.13;;;;;;;8.59;100.00;99077.97;5107467;28;20084;-83
2021/12/28 09:11:49;;;;;;;10.05;8.50;;;;;;;8.63;100.00;99088.97;5088024;28;20027;-83
2021/12/28 09:14:15;;;;;;;12.30;8.77;;;;;;;8.64;100.00;99074.91;5106895;28;20102;-82
2021/12/28 09:16:40;;;;;;;13.55;9.07;;;;;;;8.67;100.00;99078.06;5109004;28;20023;-82
2021/12/28 09:19:05;;;;;;;11.52;8.43;;;;;;;8.71;100.00;99079.41;5088567;28;20055;-82
2021/12/28 09:21:31;;;;;;;11.40;8.85;;;;;;;8.71;100.00;99076.78;5104494;28;20050;-82
2021/12/28 09:23:56;;;;;;;10.98;8.80;;;;;;;8.74;100.00;99073.88;5116929;27;20044;-82
2021/12/28 09:26:22;;;;;;;11.35;8.73;;;;;;;8.71;100.00;99066.31;5108034;28;20098;-83
2021/12/28 09:28:47;;;;;;;10.68;8.65;;;;;;;8.76;100.00;99065.88;5108386;28;20106;-83
2021/12/28 09:31:14;;;;;;;9.73;8.25;;;;;;;8.79;100.00;99063.78;5107245;28;20138;-83
2021/12/28 09:33:40;;;;;;;10.98;8.65;;;;;;;8.79;100.00;99066.41;5109948;28;20114;-83
2021/12/28 09:36:07;;;;;;;10.50;8.90;;;;;;;8.85;100.00;99065.00;5107635;28;20434;-83
2021/12/28 09:38:33;;;;;;;9.73;8.73;;;;;;;8.86;100.00;99068.47;5107551;28;20035;-80
2021/12/28 09:40:59;;;;;;;12.63;8.98;;;;;;;8.81;100.00;99050.53;5116684;28;20374;-81
2021/12/28 09:43:25;;;;;;;10.82;8.50;;;;;;;8.89;100.00;99055.06;5089355;28;20049;-79
2021/12/28 09:45:51;;;;;;;10.65;9.10;;;;;;;8.90;100.00;99038.34;5101939;28;20387;-84
2021/12/28 09:48:16;;;;;;;10.75;9.07;;;;;;;8.89;100.00;99044.56;5105256;28;20111;-84
2021/12/28 09:50:42;;;;;;;9.30;8.40;;;;;;;8.90;100.00;99047.03;5106677;28;20032;-84
2021/12/28 09:53:10;;;;;;;9.25;8.30;;;;;;;8.92;100.00;99047.72;5089587;28;20080;-83
2021/12/28 09:55:35;;;;;;;10.48;8.02;;;;;;;8.94;100.00;99034.44;5108185;28;20019;-84
2021/12/28 09:58:01;;;;;;;7.90;7.20;;;;;;;8.94;100.00;99032.66;5088977;28;20448;-84
2021/12/28 10:00:28;;;;;;;8.43;7.55;;;;;;;8.95;100.00;99028.22;5108075;28;20032;-84
2021/12/28 10:02:54;;;;;;;7.68;6.88;;;;;;;8.97;100.00;99031.53;5108119;28;20084;-83
2021/12/28 10:05:24;;;;;;;8.07;6.50;;;;;;;8.97;100.00;99032.34;5089490;28;20023;-83
2021/12/28 10:07:56;;;;;;;7.43;6.72;;;;;;;9.06;100.00;99033.25;5107777;28;20436;-82
2021/12/28 10:10:24;;;;;;;7.65;6.30;;;;;;;9.09;100.00;99025.91;5105415;28;20374;-82
2021/12/28 10:12:53;;;;;;;7.88;6.50;;;;;;;9.09;100.00;99028.53;5108722;28;20337;-82
2021/12/28 10:15:21;;;;;;;7.07;6.05;;;;;;;9.06;100.00;99007.84;5104225;28;20061;-82
2021/12/28 10:17:49;;;;;;;6.18;5.57;;;;;;;9.07;100.00;99013.91;5088637;28;20080;-82
2021/12/28 10:20:24;;;;;;;6.60;5.68;;;;;;;9.14;100.00;99009.72;5107665;28;20023;-82
2021/12/28 10:22:53;;;;;;;7.10;5.50;;;;;;;9.13;100.00;99005.44;5088451;28;20040;-82
2021/12/28 10:25:25;;;;;;;6.22;5.15;;;;;;;9.16;100.00;98993.81;5088819;28;20472;-82
2021/12/28 10:27:54;;;;;;;6.72;4.60;;;;;;;9.18;100.00;98997.94;5110606;28;20026;-82
2021/12/28 10:30:28;;;;;;;6.63;4.70;;;;;;;9.20;100.00;98985.50;5091957;28;20107;-83
2021/12/28 10:32:57;;;;;;;6.47;4.32;;;;;;;9.19;100.00;98962.03;5107632;28;20134;-83
2021/12/28 10:35:26;;;;;;;5.55;4.07;;;;;;;9.25;100.00;98978.03;5110469;28;20073;-82
2021/12/28 10:37:58;;;;;;;5.40;3.72;;;;;;;9.28;100.00;98976.91;5111873;28;20062;-83
2021/12/28 10:40:34;;;;;;;4.35;3.63;;;;;;;9.27;100.00;98957.72;5108772;28;20024;-83
2021/12/28 10:43:14;;;;;;;7.40;3.60;;;;;;;9.33;100.00;98975.47;5101749;27;20042;-85
2021/12/28 10:45:52;;;;;;;5.20;3.08;;;;;;;9.32;100.00;98965.94;5091427;28;20492;-83
2021/12/28 10:48:21;;;;;;;4.43;2.88;;;;;;;9.35;100.00;98968.28;5109883;28;20117;-83
2021/12/28 10:50:55;;;;;;;5.88;2.80;;;;;;;9.33;100.00;98962.34;5107698;28;20111;-83
2021/12/28 10:53:26;;;;;;;4.85;2.70;;;;;;;9.38;100.00;98969.75;5108616;28;20035;-82
2021/12/28 10:55:56;;;;;;;6.85;3.00;;;;;;;9.32;100.00;98957.25;5106425;28;20119;-83
2021/12/28 10:58:26;;;;;;;4.45;2.80;;;;;;;9.36;100.00;98959.41;5107906;28;20035;-84
2021/12/28 11:00:53;;;;;;;6.72;2.90;;;;;;;9.37;100.00;98949.75;5112541;27;20015;-84
2021/12/28 11:03:23;;;;;;;5.20;2.63;;;;;;;9.35;100.00;98944.66;5091342;28;20019;-85
2021/12/28 11:05:52;;;;;;;5.70;2.60;;;;;;;9.38;100.00;98951.38;5090442;28;20012;-84
2021/12/28 11:08:18;;;;;;;4.90;2.78;;;;;;;9.33;100.00;98938.72;5111205;27;20027;-84
2021/12/28 11:10:51;;;;;;;3.05;2.70;;;;;;;9.39;100.00;98948.63;5109253;28;20429;-83
2021/12/28 11:13:26;;;;;;;3.97;2.40;;;;;;;9.34;100.00;98935.13;5110197;28;20378;-84
2021/12/28 11:15:52;;;;;;;4.35;2.80;;;;;;;9.36;100.00;98938.41;5106601;27;20023;-84
2021/12/28 11:18:23;;;;;;;3.50;2.60;;;;;;;9.38;100.00;98933.03;5084116;28;20031;-83
2021/12/28 11:20:52;;;;;;;3.13;2.65;;;;;;;9.34;100.00;98911.50;5095317;28;20028;-84
2021/12/28 11:23:20;;;;;;;2.85;2.60;;;;;;;9.36;100.00;98925.31;5096343;28;20044;-83
2021/12/28 11:25:59;;;;;;;3.63;2.45;;;;;;;9.39;100.00;98926.78;5079168;28;20016;-83